sensor_id;sensor_type;location;lat;lon;timestamp;P1;durP1;ratioP1;P2;durP2;ratioP2
3407;SDS011;1717;50.240;8.406;2023-02-15T00:01:46;25.70;;;15.33;;
3407;SDS011;1717;50.240;8.406;2023-02-15T00:04:13;20.67;;;14.97;;
3407;SDS011;1717;50.240;8.406;2023-02-15T00:06:42;23.17;;;14.43;;
3407;SDS011;1717;50.240;8.406;2023-02-15T00:09:09;19.63;;;14.17;;
3407;SDS011;1717;50.240;8.406;2023-02-15T00:11:36;23.80;;;14.77;;
3407;SDS011;1717;50.240;8.406;2023-02-15T00:14:08;20.27;;;14.40;;
3407;SDS011;1717;50.240;8.406;2023-02-15T00:16:36;23.90;;;15.20;;
3407;SDS011;1717;50.240;8.406;2023-02-15T00:19:04;23.73;;;14.30;;
3407;SDS011;1717;50.240;8.406;2023-02-15T00:21:32;20.47;;;14.43;;
3407;SDS011;1717;50.240;8.406;2023-02-15T00:24:02;21.47;;;14.17;;
3407;SDS011;1717;50.240;8.406;2023-02-15T00:26:30;19.57;;;11.67;;
3407;SDS011;1717;50.240;8.406;2023-02-15T00:28:57;25.20;;;15.53;;
3407;SDS011;1717;50.240;8.406;2023-02-15T00:31:24;21.20;;;13.33;;
3407;SDS011;1717;50.240;8.406;2023-02-15T00:33:52;20.67;;;13.10;;
3407;SDS011;1717;50.240;8.406;2023-02-15T00:36:19;20.43;;;14.40;;
3407;SDS011;1717;50.240;8.406;2023-02-15T00:38:46;20.73;;;12.83;;
3407;SDS011;1717;50.240;8.406;2023-02-15T00:41:14;21.50;;;14.33;;
3407;SDS011;1717;50.240;8.406;2023-02-15T00:43:41;17.87;;;13.30;;
3407;SDS011;1717;50.240;8.406;2023-02-15T00:46:07;19.40;;;13.00;;
3407;SDS011;1717;50.240;8.406;2023-02-15T00:48:34;18.07;;;12.17;;
3407;SDS011;1717;50.240;8.406;2023-02-15T00:51:01;17.13;;;12.17;;
3407;SDS011;1717;50.240;8.406;2023-02-15T00:53:28;18.70;;;12.80;;
3407;SDS011;1717;50.240;8.406;2023-02-15T00:55:55;18.33;;;12.27;;
3407;SDS011;1717;50.240;8.406;2023-02-15T00:58:24;16.37;;;11.97;;
3407;SDS011;1717;50.240;8.406;2023-02-15T01:00:51;17.60;;;11.30;;
3407;SDS011;1717;50.240;8.406;2023-02-15T01:03:18;20.97;;;12.60;;
3407;SDS011;1717;50.240;8.406;2023-02-15T01:05:47;16.87;;;10.50;;
3407;SDS011;1717;50.240;8.406;2023-02-15T01:08:15;16.07;;;11.80;;
3407;SDS011;1717;50.240;8.406;2023-02-15T01:10:42;20.03;;;12.00;;
3407;SDS011;1717;50.240;8.406;2023-02-15T01:13:12;14.10;;;10.30;;
3407;SDS011;1717;50.240;8.406;2023-02-15T01:15:41;13.10;;;9.50;;
3407;SDS011;1717;50.240;8.406;2023-02-15T01:18:08;12.93;;;9.77;;
3407;SDS011;1717;50.240;8.406;2023-02-15T01:20:36;14.80;;;9.60;;
3407;SDS011;1717;50.240;8.406;2023-02-15T01:23:06;15.73;;;10.47;;
3407;SDS011;1717;50.240;8.406;2023-02-15T01:25:34;14.20;;;10.00;;
3407;SDS011;1717;50.240;8.406;2023-02-15T01:28:02;16.67;;;10.50;;
3407;SDS011;1717;50.240;8.406;2023-02-15T01:30:29;17.20;;;12.33;;
3407;SDS011;1717;50.240;8.406;2023-02-15T01:32:58;16.97;;;10.17;;
3407;SDS011;1717;50.240;8.406;2023-02-15T01:35:25;15.40;;;10.87;;
3407;SDS011;1717;50.240;8.406;2023-02-15T01:37:52;14.48;;;9.73;;
3407;SDS011;1717;50.240;8.406;2023-02-15T01:40:20;18.20;;;10.03;;
3407;SDS011;1717;50.240;8.406;2023-02-15T01:42:49;15.50;;;10.60;;
3407;SDS011;1717;50.240;8.406;2023-02-15T01:45:19;18.65;;;11.13;;
3407;SDS011;1717;50.240;8.406;2023-02-15T01:47:50;13.50;;;9.80;;
3407;SDS011;1717;50.240;8.406;2023-02-15T01:50:22;16.10;;;10.52;;
3407;SDS011;1717;50.240;8.406;2023-02-15T01:52:55;15.27;;;10.07;;
3407;SDS011;1717;50.240;8.406;2023-02-15T01:55:25;16.63;;;10.47;;
3407;SDS011;1717;50.240;8.406;2023-02-15T01:57:55;13.20;;;10.02;;
3407;SDS011;1717;50.240;8.406;2023-02-15T02:00:22;17.23;;;10.43;;
3407;SDS011;1717;50.240;8.406;2023-02-15T02:02:50;14.97;;;9.80;;
3407;SDS011;1717;50.240;8.406;2023-02-15T02:05:22;19.03;;;9.63;;
3407;SDS011;1717;50.240;8.406;2023-02-15T02:07:50;15.33;;;10.30;;
3407;SDS011;1717;50.240;8.406;2023-02-15T02:10:20;15.20;;;9.98;;
3407;SDS011;1717;50.240;8.406;2023-02-15T02:12:49;13.88;;;9.02;;
3407;SDS011;1717;50.240;8.406;2023-02-15T02:15:18;14.60;;;8.50;;
3407;SDS011;1717;50.240;8.406;2023-02-15T02:17:53;14.03;;;8.93;;
3407;SDS011;1717;50.240;8.406;2023-02-15T02:20:41;12.80;;;8.80;;
3407;SDS011;1717;50.240;8.406;2023-02-15T02:23:31;15.97;;;10.97;;
3407;SDS011;1717;50.240;8.406;2023-02-15T02:29:32;13.63;;;8.90;;
3407;SDS011;1717;50.240;8.406;2023-02-15T02:32:28;13.33;;;9.20;;
3407;SDS011;1717;50.240;8.406;2023-02-15T02:35:24;14.77;;;8.77;;
3407;SDS011;1717;50.240;8.406;2023-02-15T02:37:59;14.13;;;9.10;;
3407;SDS011;1717;50.240;8.406;2023-02-15T02:40:34;13.03;;;9.23;;
3407;SDS011;1717;50.240;8.406;2023-02-15T02:43:10;13.87;;;9.10;;
3407;SDS011;1717;50.240;8.406;2023-02-15T02:45:46;14.97;;;9.93;;
3407;SDS011;1717;50.240;8.406;2023-02-15T02:48:19;13.30;;;8.43;;
3407;SDS011;1717;50.240;8.406;2023-02-15T02:50:50;14.17;;;9.30;;
3407;SDS011;1717;50.240;8.406;2023-02-15T02:53:17;15.40;;;9.30;;
3407;SDS011;1717;50.240;8.406;2023-02-15T02:55:44;16.03;;;9.87;;
3407;SDS011;1717;50.240;8.406;2023-02-15T02:58:15;12.33;;;8.40;;
3407;SDS011;1717;50.240;8.406;2023-02-15T03:00:48;12.50;;;8.27;;
3407;SDS011;1717;50.240;8.406;2023-02-15T03:03:20;14.73;;;9.20;;
3407;SDS011;1717;50.240;8.406;2023-02-15T03:05:52;13.33;;;9.30;;
3407;SDS011;1717;50.240;8.406;2023-02-15T03:08:21;13.57;;;8.73;;
3407;SDS011;1717;50.240;8.406;2023-02-15T03:10:53;10.93;;;7.63;;
3407;SDS011;1717;50.240;8.406;2023-02-15T03:13:22;13.27;;;8.60;;
3407;SDS011;1717;50.240;8.406;2023-02-15T03:15:49;12.93;;;8.63;;
3407;SDS011;1717;50.240;8.406;2023-02-15T03:18:35;11.63;;;8.00;;
3407;SDS011;1717;50.240;8.406;2023-02-15T03:21:06;13.63;;;9.50;;
3407;SDS011;1717;50.240;8.406;2023-02-15T03:23:47;13.90;;;9.07;;
3407;SDS011;1717;50.240;8.406;2023-02-15T03:26:16;15.20;;;9.37;;
3407;SDS011;1717;50.240;8.406;2023-02-15T03:28:45;14.00;;;8.45;;
3407;SDS011;1717;50.240;8.406;2023-02-15T03:31:14;16.23;;;9.57;;
3407;SDS011;1717;50.240;8.406;2023-02-15T03:33:44;15.33;;;9.67;;
3407;SDS011;1717;50.240;8.406;2023-02-15T03:36:19;17.47;;;11.03;;
3407;SDS011;1717;50.240;8.406;2023-02-15T03:38:50;16.47;;;10.77;;
3407;SDS011;1717;50.240;8.406;2023-02-15T03:41:25;16.97;;;10.10;;
3407;SDS011;1717;50.240;8.406;2023-02-15T03:43:58;14.60;;;9.00;;
3407;SDS011;1717;50.240;8.406;2023-02-15T03:46:30;19.60;;;11.23;;
3407;SDS011;1717;50.240;8.406;2023-02-15T03:49:02;16.23;;;10.30;;
3407;SDS011;1717;50.240;8.406;2023-02-15T03:51:34;16.27;;;10.13;;
3407;SDS011;1717;50.240;8.406;2023-02-15T03:54:04;17.77;;;9.55;;
3407;SDS011;1717;50.240;8.406;2023-02-15T03:56:34;15.80;;;9.40;;
3407;SDS011;1717;50.240;8.406;2023-02-15T03:59:03;16.07;;;9.97;;
3407;SDS011;1717;50.240;8.406;2023-02-15T04:01:46;12.90;;;8.90;;
3407;SDS011;1717;50.240;8.406;2023-02-15T04:04:24;17.90;;;9.70;;
3407;SDS011;1717;50.240;8.406;2023-02-15T04:06:59;13.30;;;9.83;;
3407;SDS011;1717;50.240;8.406;2023-02-15T04:09:26;14.63;;;9.10;;
3407;SDS011;1717;50.240;8.406;2023-02-15T04:12:11;15.38;;;8.90;;
3407;SDS011;1717;50.240;8.406;2023-02-15T04:14:38;13.35;;;8.00;;
3407;SDS011;1717;50.240;8.406;2023-02-15T04:17:22;13.20;;;7.75;;
3407;SDS011;1717;50.240;8.406;2023-02-15T04:19:49;16.35;;;8.57;;
3407;SDS011;1717;50.240;8.406;2023-02-15T04:22:34;12.77;;;8.38;;
3407;SDS011;1717;50.240;8.406;2023-02-15T04:25:18;12.35;;;7.50;;
3407;SDS011;1717;50.240;8.406;2023-02-15T04:27:47;11.07;;;7.60;;
3407;SDS011;1717;50.240;8.406;2023-02-15T04:30:16;10.35;;;6.88;;
3407;SDS011;1717;50.240;8.406;2023-02-15T04:32:44;10.50;;;7.70;;
3407;SDS011;1717;50.240;8.406;2023-02-15T04:35:11;11.18;;;7.22;;
3407;SDS011;1717;50.240;8.406;2023-02-15T04:37:40;12.07;;;7.78;;
3407;SDS011;1717;50.240;8.406;2023-02-15T04:40:08;12.52;;;7.95;;
3407;SDS011;1717;50.240;8.406;2023-02-15T04:42:37;13.70;;;9.15;;
3407;SDS011;1717;50.240;8.406;2023-02-15T04:45:04;11.50;;;7.75;;
3407;SDS011;1717;50.240;8.406;2023-02-15T04:47:31;12.25;;;7.95;;
3407;SDS011;1717;50.240;8.406;2023-02-15T04:49:58;13.55;;;8.82;;
3407;SDS011;1717;50.240;8.406;2023-02-15T04:52:25;14.20;;;8.68;;
3407;SDS011;1717;50.240;8.406;2023-02-15T04:54:53;15.05;;;8.63;;
3407;SDS011;1717;50.240;8.406;2023-02-15T04:57:20;14.45;;;9.85;;
3407;SDS011;1717;50.240;8.406;2023-02-15T04:59:48;15.68;;;9.18;;
3407;SDS011;1717;50.240;8.406;2023-02-15T05:02:15;13.15;;;9.07;;
3407;SDS011;1717;50.240;8.406;2023-02-15T05:04:41;18.70;;;10.48;;
3407;SDS011;1717;50.240;8.406;2023-02-15T05:07:10;15.95;;;10.55;;
3407;SDS011;1717;50.240;8.406;2023-02-15T05:09:36;17.92;;;10.82;;
3407;SDS011;1717;50.240;8.406;2023-02-15T05:12:05;18.85;;;12.55;;
3407;SDS011;1717;50.240;8.406;2023-02-15T05:14:32;20.15;;;10.15;;
3407;SDS011;1717;50.240;8.406;2023-02-15T05:16:59;18.23;;;10.88;;
3407;SDS011;1717;50.240;8.406;2023-02-15T05:19:28;22.13;;;11.60;;
3407;SDS011;1717;50.240;8.406;2023-02-15T05:21:55;18.58;;;10.98;;
3407;SDS011;1717;50.240;8.406;2023-02-15T05:24:21;18.48;;;10.90;;
3407;SDS011;1717;50.240;8.406;2023-02-15T05:27:09;17.70;;;10.65;;
3407;SDS011;1717;50.240;8.406;2023-02-15T05:29:54;20.75;;;12.05;;
3407;SDS011;1717;50.240;8.406;2023-02-15T05:32:21;18.75;;;10.80;;
3407;SDS011;1717;50.240;8.406;2023-02-15T05:34:48;23.00;;;12.90;;
3407;SDS011;1717;50.240;8.406;2023-02-15T05:37:14;21.67;;;12.40;;
3407;SDS011;1717;50.240;8.406;2023-02-15T05:39:41;24.38;;;13.20;;
3407;SDS011;1717;50.240;8.406;2023-02-15T05:42:10;22.23;;;11.90;;
3407;SDS011;1717;50.240;8.406;2023-02-15T05:44:36;20.73;;;12.40;;
3407;SDS011;1717;50.240;8.406;2023-02-15T05:47:03;23.02;;;13.23;;
3407;SDS011;1717;50.240;8.406;2023-02-15T05:49:33;24.25;;;14.23;;
3407;SDS011;1717;50.240;8.406;2023-02-15T05:52:00;20.08;;;13.25;;
3407;SDS011;1717;50.240;8.406;2023-02-15T05:54:27;26.73;;;13.90;;
3407;SDS011;1717;50.240;8.406;2023-02-15T05:56:54;22.48;;;12.38;;
3407;SDS011;1717;50.240;8.406;2023-02-15T05:59:22;21.47;;;13.40;;
3407;SDS011;1717;50.240;8.406;2023-02-15T06:01:49;20.00;;;12.67;;
3407;SDS011;1717;50.240;8.406;2023-02-15T06:04:16;22.87;;;14.20;;
3407;SDS011;1717;50.240;8.406;2023-02-15T06:06:43;24.85;;;14.65;;
3407;SDS011;1717;50.240;8.406;2023-02-15T06:09:10;27.38;;;15.38;;
3407;SDS011;1717;50.240;8.406;2023-02-15T06:11:38;27.00;;;14.85;;
3407;SDS011;1717;50.240;8.406;2023-02-15T06:14:05;27.58;;;15.50;;
3407;SDS011;1717;50.240;8.406;2023-02-15T06:16:33;27.67;;;16.48;;
3407;SDS011;1717;50.240;8.406;2023-02-15T06:19:00;28.50;;;15.70;;
3407;SDS011;1717;50.240;8.406;2023-02-15T06:21:27;25.13;;;15.30;;
3407;SDS011;1717;50.240;8.406;2023-02-15T06:23:54;32.70;;;15.87;;
3407;SDS011;1717;50.240;8.406;2023-02-15T06:26:21;21.90;;;12.60;;
3407;SDS011;1717;50.240;8.406;2023-02-15T06:28:48;25.27;;;14.77;;
3407;SDS011;1717;50.240;8.406;2023-02-15T06:31:14;27.25;;;15.65;;
3407;SDS011;1717;50.240;8.406;2023-02-15T06:33:43;27.57;;;15.30;;
3407;SDS011;1717;50.240;8.406;2023-02-15T06:36:09;24.43;;;13.67;;
3407;SDS011;1717;50.240;8.406;2023-02-15T06:38:37;25.77;;;15.30;;
3407;SDS011;1717;50.240;8.406;2023-02-15T06:41:04;23.13;;;13.97;;
3407;SDS011;1717;50.240;8.406;2023-02-15T06:43:31;24.50;;;14.20;;
3407;SDS011;1717;50.240;8.406;2023-02-15T06:45:59;26.13;;;16.10;;
3407;SDS011;1717;50.240;8.406;2023-02-15T06:48:26;25.87;;;15.20;;
3407;SDS011;1717;50.240;8.406;2023-02-15T06:50:54;28.93;;;15.30;;
3407;SDS011;1717;50.240;8.406;2023-02-15T06:53:21;25.07;;;14.33;;
3407;SDS011;1717;50.240;8.406;2023-02-15T06:55:47;22.87;;;13.97;;
3407;SDS011;1717;50.240;8.406;2023-02-15T06:58:14;27.47;;;16.40;;
3407;SDS011;1717;50.240;8.406;2023-02-15T07:00:41;27.83;;;15.17;;
3407;SDS011;1717;50.240;8.406;2023-02-15T07:03:08;22.47;;;13.87;;
3407;SDS011;1717;50.240;8.406;2023-02-15T07:05:35;29.33;;;16.00;;
3407;SDS011;1717;50.240;8.406;2023-02-15T07:08:03;26.33;;;14.80;;
3407;SDS011;1717;50.240;8.406;2023-02-15T07:10:30;29.52;;;15.75;;
3407;SDS011;1717;50.240;8.406;2023-02-15T07:12:57;35.60;;;17.97;;
3407;SDS011;1717;50.240;8.406;2023-02-15T07:15:23;33.20;;;16.90;;
3407;SDS011;1717;50.240;8.406;2023-02-15T07:17:50;30.93;;;16.10;;
3407;SDS011;1717;50.240;8.406;2023-02-15T07:20:17;34.03;;;18.27;;
3407;SDS011;1717;50.240;8.406;2023-02-15T07:22:46;26.63;;;16.10;;
3407;SDS011;1717;50.240;8.406;2023-02-15T07:25:14;29.50;;;15.47;;
3407;SDS011;1717;50.240;8.406;2023-02-15T07:27:42;28.42;;;16.65;;
3407;SDS011;1717;50.240;8.406;2023-02-15T07:30:10;28.05;;;15.52;;
3407;SDS011;1717;50.240;8.406;2023-02-15T07:32:39;33.43;;;16.60;;
3407;SDS011;1717;50.240;8.406;2023-02-15T07:35:26;26.77;;;15.37;;
3407;SDS011;1717;50.240;8.406;2023-02-15T07:37:53;31.23;;;19.13;;
3407;SDS011;1717;50.240;8.406;2023-02-15T07:40:22;32.27;;;15.83;;
3407;SDS011;1717;50.240;8.406;2023-02-15T07:42:49;33.97;;;16.70;;
3407;SDS011;1717;50.240;8.406;2023-02-15T07:45:19;28.63;;;15.80;;
3407;SDS011;1717;50.240;8.406;2023-02-15T07:47:47;32.43;;;17.03;;
3407;SDS011;1717;50.240;8.406;2023-02-15T07:50:14;28.13;;;16.77;;
3407;SDS011;1717;50.240;8.406;2023-02-15T07:52:41;29.97;;;16.83;;
3407;SDS011;1717;50.240;8.406;2023-02-15T07:55:07;32.33;;;16.80;;
3407;SDS011;1717;50.240;8.406;2023-02-15T07:57:39;25.97;;;16.00;;
3407;SDS011;1717;50.240;8.406;2023-02-15T08:00:09;26.47;;;15.63;;
3407;SDS011;1717;50.240;8.406;2023-02-15T08:02:38;28.23;;;16.37;;
3407;SDS011;1717;50.240;8.406;2023-02-15T08:05:05;29.83;;;16.90;;
3407;SDS011;1717;50.240;8.406;2023-02-15T08:07:32;34.40;;;18.13;;
3407;SDS011;1717;50.240;8.406;2023-02-15T08:09:59;31.60;;;17.20;;
3407;SDS011;1717;50.240;8.406;2023-02-15T08:12:26;33.37;;;16.87;;
3407;SDS011;1717;50.240;8.406;2023-02-15T08:14:54;37.57;;;18.93;;
3407;SDS011;1717;50.240;8.406;2023-02-15T08:17:21;30.20;;;16.67;;
3407;SDS011;1717;50.240;8.406;2023-02-15T08:19:48;28.93;;;18.07;;
3407;SDS011;1717;50.240;8.406;2023-02-15T08:22:15;38.10;;;18.80;;
3407;SDS011;1717;50.240;8.406;2023-02-15T08:24:42;30.80;;;16.90;;
3407;SDS011;1717;50.240;8.406;2023-02-15T08:27:09;38.87;;;17.90;;
3407;SDS011;1717;50.240;8.406;2023-02-15T08:29:37;33.00;;;16.90;;
3407;SDS011;1717;50.240;8.406;2023-02-15T08:32:06;34.67;;;19.10;;
3407;SDS011;1717;50.240;8.406;2023-02-15T08:34:36;39.83;;;19.27;;
3407;SDS011;1717;50.240;8.406;2023-02-15T08:37:05;30.63;;;16.10;;
3407;SDS011;1717;50.240;8.406;2023-02-15T08:39:32;32.37;;;17.27;;
3407;SDS011;1717;50.240;8.406;2023-02-15T08:41:59;38.00;;;19.50;;
3407;SDS011;1717;50.240;8.406;2023-02-15T08:44:26;35.47;;;18.50;;
3407;SDS011;1717;50.240;8.406;2023-02-15T08:46:53;36.43;;;20.07;;
3407;SDS011;1717;50.240;8.406;2023-02-15T08:49:23;47.17;;;27.80;;
3407;SDS011;1717;50.240;8.406;2023-02-15T08:51:50;40.67;;;23.87;;
3407;SDS011;1717;50.240;8.406;2023-02-15T08:54:19;50.57;;;25.47;;
3407;SDS011;1717;50.240;8.406;2023-02-15T08:56:47;50.47;;;26.77;;
3407;SDS011;1717;50.240;8.406;2023-02-15T08:59:14;44.17;;;25.47;;
3407;SDS011;1717;50.240;8.406;2023-02-15T09:01:42;44.90;;;25.10;;
3407;SDS011;1717;50.240;8.406;2023-02-15T09:04:10;43.03;;;24.07;;
3407;SDS011;1717;50.240;8.406;2023-02-15T09:06:39;47.30;;;24.33;;
3407;SDS011;1717;50.240;8.406;2023-02-15T09:09:08;42.60;;;21.83;;
3407;SDS011;1717;50.240;8.406;2023-02-15T09:11:36;35.53;;;20.90;;
3407;SDS011;1717;50.240;8.406;2023-02-15T09:14:05;37.00;;;20.20;;
3407;SDS011;1717;50.240;8.406;2023-02-15T09:16:35;38.57;;;22.00;;
3407;SDS011;1717;50.240;8.406;2023-02-15T09:19:03;35.13;;;20.17;;
3407;SDS011;1717;50.240;8.406;2023-02-15T09:21:31;37.33;;;19.90;;
3407;SDS011;1717;50.240;8.406;2023-02-15T09:24:00;38.80;;;20.80;;
3407;SDS011;1717;50.240;8.406;2023-02-15T09:26:30;33.03;;;19.07;;
3407;SDS011;1717;50.240;8.406;2023-02-15T09:28:59;37.70;;;19.97;;
3407;SDS011;1717;50.240;8.406;2023-02-15T09:31:28;39.47;;;21.93;;
3407;SDS011;1717;50.240;8.406;2023-02-15T09:33:57;34.10;;;19.57;;
3407;SDS011;1717;50.240;8.406;2023-02-15T09:36:26;31.17;;;18.40;;
3407;SDS011;1717;50.240;8.406;2023-02-15T09:38:55;32.77;;;20.20;;
3407;SDS011;1717;50.240;8.406;2023-02-15T09:41:36;32.77;;;20.10;;
3407;SDS011;1717;50.240;8.406;2023-02-15T09:44:17;33.37;;;18.50;;
3407;SDS011;1717;50.240;8.406;2023-02-15T09:46:56;33.43;;;18.50;;
3407;SDS011;1717;50.240;8.406;2023-02-15T09:49:36;33.57;;;18.83;;
3407;SDS011;1717;50.240;8.406;2023-02-15T09:52:18;34.17;;;17.00;;
3407;SDS011;1717;50.240;8.406;2023-02-15T09:55:13;27.50;;;16.77;;
3407;SDS011;1717;50.240;8.406;2023-02-15T09:57:51;29.07;;;17.00;;
3407;SDS011;1717;50.240;8.406;2023-02-15T10:00:25;36.00;;;17.80;;
3407;SDS011;1717;50.240;8.406;2023-02-15T10:03:04;31.77;;;17.17;;
3407;SDS011;1717;50.240;8.406;2023-02-15T10:05:54;34.30;;;18.50;;
3407;SDS011;1717;50.240;8.406;2023-02-15T10:08:46;31.10;;;16.83;;
3407;SDS011;1717;50.240;8.406;2023-02-15T10:11:28;29.70;;;16.50;;
3407;SDS011;1717;50.240;8.406;2023-02-15T10:17:05;29.87;;;15.70;;
3407;SDS011;1717;50.240;8.406;2023-02-15T10:19:40;24.07;;;15.47;;
3407;SDS011;1717;50.240;8.406;2023-02-15T10:22:19;26.77;;;16.53;;
3407;SDS011;1717;50.240;8.406;2023-02-15T10:25:01;22.40;;;14.37;;
3407;SDS011;1717;50.240;8.406;2023-02-15T10:27:40;26.57;;;16.00;;
3407;SDS011;1717;50.240;8.406;2023-02-15T10:32:45;24.77;;;14.10;;
3407;SDS011;1717;50.240;8.406;2023-02-15T10:35:20;25.13;;;15.53;;
3407;SDS011;1717;50.240;8.406;2023-02-15T10:37:58;20.60;;;14.57;;
3407;SDS011;1717;50.240;8.406;2023-02-15T10:40:46;21.53;;;12.67;;
3407;SDS011;1717;50.240;8.406;2023-02-15T10:43:29;25.33;;;15.13;;
3407;SDS011;1717;50.240;8.406;2023-02-15T10:46:16;21.40;;;12.90;;
3407;SDS011;1717;50.240;8.406;2023-02-15T10:49:02;20.87;;;13.80;;
3407;SDS011;1717;50.240;8.406;2023-02-15T10:51:45;23.47;;;14.57;;
3407;SDS011;1717;50.240;8.406;2023-02-15T10:54:24;22.80;;;15.67;;
3407;SDS011;1717;50.240;8.406;2023-02-15T10:57:03;22.73;;;13.83;;
3407;SDS011;1717;50.240;8.406;2023-02-15T10:59:52;21.37;;;13.50;;
3407;SDS011;1717;50.240;8.406;2023-02-15T11:02:37;18.23;;;12.40;;
3407;SDS011;1717;50.240;8.406;2023-02-15T11:05:20;21.30;;;13.43;;
3407;SDS011;1717;50.240;8.406;2023-02-15T11:07:53;23.33;;;14.90;;
3407;SDS011;1717;50.240;8.406;2023-02-15T11:10:26;21.97;;;13.03;;
3407;SDS011;1717;50.240;8.406;2023-02-15T11:12:56;24.47;;;14.13;;
3407;SDS011;1717;50.240;8.406;2023-02-15T11:15:29;19.83;;;13.20;;
3407;SDS011;1717;50.240;8.406;2023-02-15T11:18:02;19.60;;;12.97;;
3407;SDS011;1717;50.240;8.406;2023-02-15T11:20:33;23.03;;;13.80;;
3407;SDS011;1717;50.240;8.406;2023-02-15T11:23:06;23.37;;;12.67;;
3407;SDS011;1717;50.240;8.406;2023-02-15T11:25:41;20.70;;;12.77;;
3407;SDS011;1717;50.240;8.406;2023-02-15T11:28:13;22.03;;;12.37;;
3407;SDS011;1717;50.240;8.406;2023-02-15T11:30:45;21.77;;;12.60;;
3407;SDS011;1717;50.240;8.406;2023-02-15T11:33:20;22.03;;;13.00;;
3407;SDS011;1717;50.240;8.406;2023-02-15T11:35:52;20.10;;;13.57;;
3407;SDS011;1717;50.240;8.406;2023-02-15T11:38:26;21.10;;;13.23;;
3407;SDS011;1717;50.240;8.406;2023-02-15T11:40:56;21.17;;;12.33;;
3407;SDS011;1717;50.240;8.406;2023-02-15T11:43:27;21.10;;;12.50;;
3407;SDS011;1717;50.240;8.406;2023-02-15T11:45:58;22.10;;;14.17;;
3407;SDS011;1717;50.240;8.406;2023-02-15T11:48:27;20.13;;;12.83;;
3407;SDS011;1717;50.240;8.406;2023-02-15T11:50:57;20.80;;;12.73;;
3407;SDS011;1717;50.240;8.406;2023-02-15T11:53:31;24.30;;;13.67;;
3407;SDS011;1717;50.240;8.406;2023-02-15T11:56:00;23.83;;;14.33;;
3407;SDS011;1717;50.240;8.406;2023-02-15T11:58:30;20.13;;;12.00;;
3407;SDS011;1717;50.240;8.406;2023-02-15T12:01:07;25.20;;;14.80;;
3407;SDS011;1717;50.240;8.406;2023-02-15T12:03:42;22.60;;;13.80;;
3407;SDS011;1717;50.240;8.406;2023-02-15T12:06:23;25.23;;;14.57;;
3407;SDS011;1717;50.240;8.406;2023-02-15T12:08:54;27.77;;;15.57;;
3407;SDS011;1717;50.240;8.406;2023-02-15T12:11:26;24.63;;;14.63;;
3407;SDS011;1717;50.240;8.406;2023-02-15T12:14:02;21.03;;;13.50;;
3407;SDS011;1717;50.240;8.406;2023-02-15T12:16:32;22.30;;;13.60;;
3407;SDS011;1717;50.240;8.406;2023-02-15T12:19:12;21.70;;;13.60;;
3407;SDS011;1717;50.240;8.406;2023-02-15T12:21:54;25.77;;;15.03;;
3407;SDS011;1717;50.240;8.406;2023-02-15T12:24:25;22.70;;;12.93;;
3407;SDS011;1717;50.240;8.406;2023-02-15T12:26:59;22.40;;;13.57;;
3407;SDS011;1717;50.240;8.406;2023-02-15T12:29:29;21.50;;;13.47;;
3407;SDS011;1717;50.240;8.406;2023-02-15T12:32:00;26.10;;;14.20;;
3407;SDS011;1717;50.240;8.406;2023-02-15T12:34:30;28.63;;;15.30;;
3407;SDS011;1717;50.240;8.406;2023-02-15T12:37:07;21.60;;;14.47;;
3407;SDS011;1717;50.240;8.406;2023-02-15T12:39:44;24.00;;;14.13;;
3407;SDS011;1717;50.240;8.406;2023-02-15T12:42:17;26.37;;;15.07;;
3407;SDS011;1717;50.240;8.406;2023-02-15T12:44:56;25.93;;;15.37;;
3407;SDS011;1717;50.240;8.406;2023-02-15T12:47:25;25.77;;;15.00;;
3407;SDS011;1717;50.240;8.406;2023-02-15T12:50:08;24.30;;;15.50;;
3407;SDS011;1717;50.240;8.406;2023-02-15T12:52:42;25.77;;;16.73;;
3407;SDS011;1717;50.240;8.406;2023-02-15T12:55:17;27.00;;;16.60;;
3407;SDS011;1717;50.240;8.406;2023-02-15T12:57:46;27.70;;;17.27;;
3407;SDS011;1717;50.240;8.406;2023-02-15T13:00:25;30.87;;;17.17;;
3407;SDS011;1717;50.240;8.406;2023-02-15T13:02:56;30.43;;;16.60;;
3407;SDS011;1717;50.240;8.406;2023-02-15T13:05:28;30.47;;;16.77;;
3407;SDS011;1717;50.240;8.406;2023-02-15T13:08:00;27.53;;;16.70;;
3407;SDS011;1717;50.240;8.406;2023-02-15T13:10:31;32.53;;;17.17;;
3407;SDS011;1717;50.240;8.406;2023-02-15T13:13:01;33.67;;;18.70;;
3407;SDS011;1717;50.240;8.406;2023-02-15T13:15:35;30.80;;;17.97;;
3407;SDS011;1717;50.240;8.406;2023-02-15T13:18:05;32.47;;;19.13;;
3407;SDS011;1717;50.240;8.406;2023-02-15T13:20:41;29.57;;;17.80;;
3407;SDS011;1717;50.240;8.406;2023-02-15T13:23:13;30.93;;;16.00;;
3407;SDS011;1717;50.240;8.406;2023-02-15T13:25:49;31.70;;;16.83;;
3407;SDS011;1717;50.240;8.406;2023-02-15T13:28:17;28.73;;;17.33;;
3407;SDS011;1717;50.240;8.406;2023-02-15T13:30:48;28.33;;;17.10;;
3407;SDS011;1717;50.240;8.406;2023-02-15T13:33:18;32.57;;;18.97;;
3407;SDS011;1717;50.240;8.406;2023-02-15T13:35:54;33.13;;;17.77;;
3407;SDS011;1717;50.240;8.406;2023-02-15T13:38:37;30.37;;;17.17;;
3407;SDS011;1717;50.240;8.406;2023-02-15T13:41:12;31.70;;;17.77;;
3407;SDS011;1717;50.240;8.406;2023-02-15T13:43:46;28.10;;;17.93;;
3407;SDS011;1717;50.240;8.406;2023-02-15T13:46:24;30.40;;;18.60;;
3407;SDS011;1717;50.240;8.406;2023-02-15T13:49:09;32.10;;;18.03;;
3407;SDS011;1717;50.240;8.406;2023-02-15T13:51:46;28.00;;;17.57;;
3407;SDS011;1717;50.240;8.406;2023-02-15T13:57:32;32.43;;;18.93;;
3407;SDS011;1717;50.240;8.406;2023-02-15T14:00:16;33.20;;;18.40;;
3407;SDS011;1717;50.240;8.406;2023-02-15T14:02:55;38.13;;;19.80;;
3407;SDS011;1717;50.240;8.406;2023-02-15T14:05:53;36.33;;;20.63;;
3407;SDS011;1717;50.240;8.406;2023-02-15T14:08:45;32.10;;;18.70;;
3407;SDS011;1717;50.240;8.406;2023-02-15T14:11:26;32.87;;;19.27;;
3407;SDS011;1717;50.240;8.406;2023-02-15T14:14:05;37.63;;;20.17;;
3407;SDS011;1717;50.240;8.406;2023-02-15T14:16:48;33.50;;;19.00;;
3407;SDS011;1717;50.240;8.406;2023-02-15T14:19:25;36.07;;;21.57;;
3407;SDS011;1717;50.240;8.406;2023-02-15T14:22:02;33.23;;;19.10;;
3407;SDS011;1717;50.240;8.406;2023-02-15T14:24:41;39.80;;;20.47;;
3407;SDS011;1717;50.240;8.406;2023-02-15T14:27:17;31.67;;;19.33;;
3407;SDS011;1717;50.240;8.406;2023-02-15T14:29:51;31.10;;;18.40;;
3407;SDS011;1717;50.240;8.406;2023-02-15T14:32:24;34.37;;;19.53;;
3407;SDS011;1717;50.240;8.406;2023-02-15T14:34:56;33.57;;;21.03;;
3407;SDS011;1717;50.240;8.406;2023-02-15T14:37:29;28.97;;;18.63;;
3407;SDS011;1717;50.240;8.406;2023-02-15T14:40:08;26.90;;;17.07;;
3407;SDS011;1717;50.240;8.406;2023-02-15T14:43:01;31.03;;;18.67;;
3407;SDS011;1717;50.240;8.406;2023-02-15T14:45:35;32.60;;;19.57;;
3407;SDS011;1717;50.240;8.406;2023-02-15T14:48:10;37.07;;;21.13;;
3407;SDS011;1717;50.240;8.406;2023-02-15T14:50:43;30.03;;;18.03;;
3407;SDS011;1717;50.240;8.406;2023-02-15T14:53:15;29.10;;;16.60;;
3407;SDS011;1717;50.240;8.406;2023-02-15T14:56:00;29.80;;;17.57;;
3407;SDS011;1717;50.240;8.406;2023-02-15T14:58:33;27.67;;;16.43;;
3407;SDS011;1717;50.240;8.406;2023-02-15T15:01:03;27.60;;;16.97;;
3407;SDS011;1717;50.240;8.406;2023-02-15T15:03:32;27.77;;;17.33;;
3407;SDS011;1717;50.240;8.406;2023-02-15T15:06:01;29.80;;;16.57;;
3407;SDS011;1717;50.240;8.406;2023-02-15T15:08:31;30.30;;;18.43;;
3407;SDS011;1717;50.240;8.406;2023-02-15T15:14:02;29.23;;;17.17;;
3407;SDS011;1717;50.240;8.406;2023-02-15T15:16:34;28.20;;;17.00;;
3407;SDS011;1717;50.240;8.406;2023-02-15T15:22:30;33.33;;;19.13;;
3407;SDS011;1717;50.240;8.406;2023-02-15T15:24:59;29.57;;;18.87;;
3407;SDS011;1717;50.240;8.406;2023-02-15T15:27:43;34.50;;;19.50;;
3407;SDS011;1717;50.240;8.406;2023-02-15T15:36:46;32.20;;;18.30;;
3407;SDS011;1717;50.240;8.406;2023-02-15T15:42:50;40.20;;;21.63;;
3407;SDS011;1717;50.240;8.406;2023-02-15T15:45:33;46.30;;;22.60;;
3407;SDS011;1717;50.240;8.406;2023-02-15T15:50:57;49.83;;;24.47;;